sensor_id;sensor_type;location;lat;lon;timestamp;temperature;humidity
11454;DHT22;5783;55.174;61.310;2023-04-12T00:00:26;19.70;25.90
11454;DHT22;5783;55.174;61.310;2023-04-12T00:02:56;19.60;25.90
11454;DHT22;5783;55.174;61.310;2023-04-12T00:05:26;19.60;25.90
11454;DHT22;5783;55.174;61.310;2023-04-12T00:07:56;19.60;26.00
11454;DHT22;5783;55.174;61.310;2023-04-12T00:10:27;19.60;26.10
11454;DHT22;5783;55.174;61.310;2023-04-12T00:12:56;19.60;26.10
11454;DHT22;5783;55.174;61.310;2023-04-12T00:15:26;19.60;26.00
11454;DHT22;5783;55.174;61.310;2023-04-12T00:17:55;19.60;25.90
11454;DHT22;5783;55.174;61.310;2023-04-12T00:20:24;19.70;26.00
11454;DHT22;5783;55.174;61.310;2023-04-12T00:22:53;19.70;26.20
11454;DHT22;5783;55.174;61.310;2023-04-12T00:25:23;19.70;26.00
11454;DHT22;5783;55.174;61.310;2023-04-12T00:27:52;19.70;26.00
11454;DHT22;5783;55.174;61.310;2023-04-12T00:30:21;19.70;25.90
11454;DHT22;5783;55.174;61.310;2023-04-12T00:32:51;19.70;25.90
11454;DHT22;5783;55.174;61.310;2023-04-12T00:35:20;19.80;25.90
11454;DHT22;5783;55.174;61.310;2023-04-12T00:37:50;19.80;25.90
11454;DHT22;5783;55.174;61.310;2023-04-12T00:40:20;19.90;26.00
11454;DHT22;5783;55.174;61.310;2023-04-12T00:42:49;19.90;25.90
11454;DHT22;5783;55.174;61.310;2023-04-12T00:45:18;19.90;25.80
11454;DHT22;5783;55.174;61.310;2023-04-12T00:47:47;19.90;25.70
11454;DHT22;5783;55.174;61.310;2023-04-12T00:50:16;19.80;25.90
11454;DHT22;5783;55.174;61.310;2023-04-12T00:52:47;19.80;25.80
11454;DHT22;5783;55.174;61.310;2023-04-12T00:55:17;19.80;25.80
11454;DHT22;5783;55.174;61.310;2023-04-12T00:57:46;19.80;25.80
11454;DHT22;5783;55.174;61.310;2023-04-12T01:00:17;19.80;25.80
11454;DHT22;5783;55.174;61.310;2023-04-12T01:02:47;19.80;25.80
11454;DHT22;5783;55.174;61.310;2023-04-12T01:05:21;19.80;26.00
11454;DHT22;5783;55.174;61.310;2023-04-12T01:10:45;19.90;26.00
11454;DHT22;5783;55.174;61.310;2023-04-12T01:18:56;19.90;25.80
11454;DHT22;5783;55.174;61.310;2023-04-12T01:30:17;19.70;25.60
11454;DHT22;5783;55.174;61.310;2023-04-12T01:33:08;19.70;25.60
11454;DHT22;5783;55.174;61.310;2023-04-12T01:35:39;19.70;25.60
11454;DHT22;5783;55.174;61.310;2023-04-12T01:38:09;19.60;25.70
11454;DHT22;5783;55.174;61.310;2023-04-12T01:40:38;19.60;25.80
11454;DHT22;5783;55.174;61.310;2023-04-12T01:45:40;19.60;26.20
11454;DHT22;5783;55.174;61.310;2023-04-12T01:48:10;19.60;25.70
11454;DHT22;5783;55.174;61.310;2023-04-12T01:56:42;19.50;25.90
11454;DHT22;5783;55.174;61.310;2023-04-12T01:59:13;19.50;26.00
11454;DHT22;5783;55.174;61.310;2023-04-12T02:02:03;19.50;26.10
11454;DHT22;5783;55.174;61.310;2023-04-12T02:04:34;19.40;26.10
11454;DHT22;5783;55.174;61.310;2023-04-12T02:07:04;19.50;26.10
11454;DHT22;5783;55.174;61.310;2023-04-12T02:09:53;19.50;26.10
11454;DHT22;5783;55.174;61.310;2023-04-12T02:12:22;19.50;26.10
11454;DHT22;5783;55.174;61.310;2023-04-12T02:14:51;19.50;26.20
11454;DHT22;5783;55.174;61.310;2023-04-12T02:17:20;19.50;26.20
11454;DHT22;5783;55.174;61.310;2023-04-12T02:19:50;19.50;26.20
11454;DHT22;5783;55.174;61.310;2023-04-12T02:22:19;19.50;26.10
11454;DHT22;5783;55.174;61.310;2023-04-12T02:24:48;19.60;26.20
11454;DHT22;5783;55.174;61.310;2023-04-12T02:27:17;19.60;26.20
11454;DHT22;5783;55.174;61.310;2023-04-12T02:29:47;19.60;26.10
11454;DHT22;5783;55.174;61.310;2023-04-12T02:32:16;19.60;26.00
11454;DHT22;5783;55.174;61.310;2023-04-12T02:34:46;19.60;26.10
11454;DHT22;5783;55.174;61.310;2023-04-12T02:37:17;19.60;26.00
11454;DHT22;5783;55.174;61.310;2023-04-12T02:39:47;19.60;25.90
11454;DHT22;5783;55.174;61.310;2023-04-12T02:42:16;19.60;25.80
11454;DHT22;5783;55.174;61.310;2023-04-12T02:44:46;19.60;25.70
11454;DHT22;5783;55.174;61.310;2023-04-12T02:47:15;19.70;25.70
11454;DHT22;5783;55.174;61.310;2023-04-12T02:49:44;19.70;25.50
11454;DHT22;5783;55.174;61.310;2023-04-12T02:52:13;19.70;25.50
11454;DHT22;5783;55.174;61.310;2023-04-12T02:54:42;19.70;25.50
11454;DHT22;5783;55.174;61.310;2023-04-12T02:57:11;19.70;25.50
11454;DHT22;5783;55.174;61.310;2023-04-12T02:59:41;19.70;25.50
11454;DHT22;5783;55.174;61.310;2023-04-12T03:02:11;19.70;25.50
11454;DHT22;5783;55.174;61.310;2023-04-12T03:04:40;19.70;25.50
11454;DHT22;5783;55.174;61.310;2023-04-12T03:07:10;19.70;25.60
11454;DHT22;5783;55.174;61.310;2023-04-12T03:09:40;19.70;25.60
11454;DHT22;5783;55.174;61.310;2023-04-12T03:12:10;19.70;25.60
11454;DHT22;5783;55.174;61.310;2023-04-12T03:14:39;19.80;25.70
11454;DHT22;5783;55.174;61.310;2023-04-12T03:17:08;19.80;25.70
11454;DHT22;5783;55.174;61.310;2023-04-12T03:19:37;19.80;25.70
11454;DHT22;5783;55.174;61.310;2023-04-12T03:22:06;19.90;25.70
11454;DHT22;5783;55.174;61.310;2023-04-12T03:24:36;19.90;25.70
11454;DHT22;5783;55.174;61.310;2023-04-12T03:27:07;19.90;25.70
11454;DHT22;5783;55.174;61.310;2023-04-12T03:29:36;19.90;25.70
11454;DHT22;5783;55.174;61.310;2023-04-12T03:32:05;19.90;25.70
11454;DHT22;5783;55.174;61.310;2023-04-12T03:34:34;19.90;25.80
11454;DHT22;5783;55.174;61.310;2023-04-12T03:37:04;19.90;25.70
11454;DHT22;5783;55.174;61.310;2023-04-12T03:39:33;19.90;25.70
11454;DHT22;5783;55.174;61.310;2023-04-12T03:42:02;19.90;25.70
11454;DHT22;5783;55.174;61.310;2023-04-12T03:44:31;19.90;25.80
11454;DHT22;5783;55.174;61.310;2023-04-12T03:47:00;19.90;25.80
11454;DHT22;5783;55.174;61.310;2023-04-12T03:49:30;19.90;25.60
11454;DHT22;5783;55.174;61.310;2023-04-12T03:51:59;19.90;25.60
11454;DHT22;5783;55.174;61.310;2023-04-12T03:54:28;19.90;25.60
11454;DHT22;5783;55.174;61.310;2023-04-12T03:56:57;19.90;25.70
11454;DHT22;5783;55.174;61.310;2023-04-12T03:59:28;19.90;25.60
11454;DHT22;5783;55.174;61.310;2023-04-12T04:01:59;19.90;25.70
11454;DHT22;5783;55.174;61.310;2023-04-12T04:04:28;19.90;25.60
11454;DHT22;5783;55.174;61.310;2023-04-12T04:06:57;19.90;25.60
11454;DHT22;5783;55.174;61.310;2023-04-12T04:09:31;19.90;25.60
11454;DHT22;5783;55.174;61.310;2023-04-12T04:12:01;19.90;25.60
11454;DHT22;5783;55.174;61.310;2023-04-12T04:14:30;19.90;25.50
11454;DHT22;5783;55.174;61.310;2023-04-12T04:17:01;19.90;24.20
11454;DHT22;5783;55.174;61.310;2023-04-12T04:19:31;19.80;24.30
11454;DHT22;5783;55.174;61.310;2023-04-12T04:22:00;19.80;24.00
11454;DHT22;5783;55.174;61.310;2023-04-12T04:24:30;19.90;24.40
11454;DHT22;5783;55.174;61.310;2023-04-12T04:27:00;20.10;24.20
11454;DHT22;5783;55.174;61.310;2023-04-12T04:29:29;20.30;24.00
11454;DHT22;5783;55.174;61.310;2023-04-12T04:31:59;20.40;23.80
11454;DHT22;5783;55.174;61.310;2023-04-12T04:34:28;20.40;24.00
11454;DHT22;5783;55.174;61.310;2023-04-12T04:36:57;20.50;24.30
11454;DHT22;5783;55.174;61.310;2023-04-12T04:39:27;20.70;24.20
11454;DHT22;5783;55.174;61.310;2023-04-12T04:41:56;20.80;24.20
11454;DHT22;5783;55.174;61.310;2023-04-12T04:44:25;21.00;23.80
11454;DHT22;5783;55.174;61.310;2023-04-12T04:46:54;21.10;23.70
11454;DHT22;5783;55.174;61.310;2023-04-12T04:49:24;21.20;23.70
11454;DHT22;5783;55.174;61.310;2023-04-12T04:51:54;21.30;23.60
11454;DHT22;5783;55.174;61.310;2023-04-12T04:54:23;21.30;23.80
11454;DHT22;5783;55.174;61.310;2023-04-12T04:56:52;21.40;23.70
11454;DHT22;5783;55.174;61.310;2023-04-12T04:59:22;21.50;23.30
11454;DHT22;5783;55.174;61.310;2023-04-12T05:01:51;21.50;23.60
11454;DHT22;5783;55.174;61.310;2023-04-12T05:04:20;21.60;22.90
11454;DHT22;5783;55.174;61.310;2023-04-12T05:06:49;21.60;23.20
11454;DHT22;5783;55.174;61.310;2023-04-12T05:09:19;21.80;21.80
11454;DHT22;5783;55.174;61.310;2023-04-12T05:11:48;22.00;20.70
11454;DHT22;5783;55.174;61.310;2023-04-12T05:14:17;22.20;20.00
11454;DHT22;5783;55.174;61.310;2023-04-12T05:16:46;22.30;19.40
11454;DHT22;5783;55.174;61.310;2023-04-12T05:19:15;22.40;19.20
11454;DHT22;5783;55.174;61.310;2023-04-12T05:21:44;22.40;19.20
11454;DHT22;5783;55.174;61.310;2023-04-12T05:24:14;22.50;18.90
11454;DHT22;5783;55.174;61.310;2023-04-12T05:26:43;22.50;18.10
11454;DHT22;5783;55.174;61.310;2023-04-12T05:29:12;22.50;18.00
11454;DHT22;5783;55.174;61.310;2023-04-12T05:31:41;22.50;17.90
11454;DHT22;5783;55.174;61.310;2023-04-12T05:34:11;22.40;17.90
11454;DHT22;5783;55.174;61.310;2023-04-12T05:36:40;22.30;17.80
11454;DHT22;5783;55.174;61.310;2023-04-12T05:39:10;22.20;18.00
11454;DHT22;5783;55.174;61.310;2023-04-12T05:41:39;22.10;17.90
11454;DHT22;5783;55.174;61.310;2023-04-12T05:44:08;22.10;18.20
11454;DHT22;5783;55.174;61.310;2023-04-12T05:46:37;22.10;18.30
11454;DHT22;5783;55.174;61.310;2023-04-12T05:49:06;22.10;18.10
11454;DHT22;5783;55.174;61.310;2023-04-12T05:51:35;22.00;18.10
11454;DHT22;5783;55.174;61.310;2023-04-12T05:54:04;22.00;18.20
11454;DHT22;5783;55.174;61.310;2023-04-12T05:56:34;22.00;18.20
11454;DHT22;5783;55.174;61.310;2023-04-12T05:59:03;21.90;18.20
11454;DHT22;5783;55.174;61.310;2023-04-12T06:01:34;21.90;18.20
11454;DHT22;5783;55.174;61.310;2023-04-12T06:04:05;21.90;18.20
11454;DHT22;5783;55.174;61.310;2023-04-12T06:06:34;21.90;18.20
11454;DHT22;5783;55.174;61.310;2023-04-12T06:09:04;21.90;18.30
11454;DHT22;5783;55.174;61.310;2023-04-12T06:11:33;21.90;18.40
11454;DHT22;5783;55.174;61.310;2023-04-12T06:14:03;21.80;18.30
11454;DHT22;5783;55.174;61.310;2023-04-12T06:16:33;21.80;18.40
11454;DHT22;5783;55.174;61.310;2023-04-12T06:19:02;21.80;18.60
11454;DHT22;5783;55.174;61.310;2023-04-12T06:21:31;21.80;18.70
11454;DHT22;5783;55.174;61.310;2023-04-12T06:24:00;21.80;18.60
11454;DHT22;5783;55.174;61.310;2023-04-12T06:26:30;21.80;18.60
11454;DHT22;5783;55.174;61.310;2023-04-12T06:28:59;21.80;18.90
11454;DHT22;5783;55.174;61.310;2023-04-12T06:31:28;21.80;18.80
11454;DHT22;5783;55.174;61.310;2023-04-12T06:33:57;21.80;18.70
11454;DHT22;5783;55.174;61.310;2023-04-12T06:36:26;21.80;18.70
11454;DHT22;5783;55.174;61.310;2023-04-12T06:38:55;21.70;18.60
11454;DHT22;5783;55.174;61.310;2023-04-12T06:41:25;21.70;18.60
11454;DHT22;5783;55.174;61.310;2023-04-12T06:43:54;21.70;18.60
11454;DHT22;5783;55.174;61.310;2023-04-12T06:46:26;21.70;18.60
11454;DHT22;5783;55.174;61.310;2023-04-12T06:48:55;21.70;18.60
11454;DHT22;5783;55.174;61.310;2023-04-12T06:51:24;21.70;18.60
11454;DHT22;5783;55.174;61.310;2023-04-12T06:53:53;21.70;18.80
11454;DHT22;5783;55.174;61.310;2023-04-12T06:56:23;21.70;18.90
11454;DHT22;5783;55.174;61.310;2023-04-12T06:58:52;21.70;19.00
11454;DHT22;5783;55.174;61.310;2023-04-12T07:01:21;21.70;18.90
11454;DHT22;5783;55.174;61.310;2023-04-12T07:03:50;21.70;18.90
11454;DHT22;5783;55.174;61.310;2023-04-12T07:06:19;21.70;18.90
11454;DHT22;5783;55.174;61.310;2023-04-12T07:08:49;21.70;18.90
11454;DHT22;5783;55.174;61.310;2023-04-12T07:11:18;21.70;19.30
11454;DHT22;5783;55.174;61.310;2023-04-12T07:14:07;21.70;19.10
11454;DHT22;5783;55.174;61.310;2023-04-12T07:16:36;21.70;19.00
11454;DHT22;5783;55.174;61.310;2023-04-12T07:19:05;21.60;18.90
11454;DHT22;5783;55.174;61.310;2023-04-12T07:21:34;21.60;19.00
11454;DHT22;5783;55.174;61.310;2023-04-12T07:24:04;21.60;19.20
11454;DHT22;5783;55.174;61.310;2023-04-12T07:26:33;21.60;19.60
11454;DHT22;5783;55.174;61.310;2023-04-12T07:29:02;21.60;19.40
11454;DHT22;5783;55.174;61.310;2023-04-12T07:31:31;21.60;19.20
11454;DHT22;5783;55.174;61.310;2023-04-12T07:34:01;21.60;19.20
11454;DHT22;5783;55.174;61.310;2023-04-12T07:36:30;21.60;19.20
11454;DHT22;5783;55.174;61.310;2023-04-12T07:38:59;21.60;19.20
11454;DHT22;5783;55.174;61.310;2023-04-12T07:41:28;21.50;19.30
11454;DHT22;5783;55.174;61.310;2023-04-12T07:43:58;21.50;19.30
11454;DHT22;5783;55.174;61.310;2023-04-12T07:46:27;21.50;19.30
11454;DHT22;5783;55.174;61.310;2023-04-12T07:48:59;21.50;19.20
11454;DHT22;5783;55.174;61.310;2023-04-12T07:51:29;21.40;19.30
11454;DHT22;5783;55.174;61.310;2023-04-12T07:53:58;21.40;19.50
11454;DHT22;5783;55.174;61.310;2023-04-12T07:56:27;21.50;19.70
11454;DHT22;5783;55.174;61.310;2023-04-12T07:58:56;21.50;19.40
11454;DHT22;5783;55.174;61.310;2023-04-12T08:01:25;21.60;19.30
11454;DHT22;5783;55.174;61.310;2023-04-12T08:03:55;21.60;19.30
11454;DHT22;5783;55.174;61.310;2023-04-12T08:06:25;21.60;19.30
11454;DHT22;5783;55.174;61.310;2023-04-12T08:08:54;21.60;19.50
11454;DHT22;5783;55.174;61.310;2023-04-12T08:11:25;21.60;19.50
11454;DHT22;5783;55.174;61.310;2023-04-12T08:13:54;21.60;19.50
11454;DHT22;5783;55.174;61.310;2023-04-12T08:16:23;21.70;19.50
11454;DHT22;5783;55.174;61.310;2023-04-12T08:18:52;21.70;19.60
11454;DHT22;5783;55.174;61.310;2023-04-12T08:21:22;21.70;19.50
11454;DHT22;5783;55.174;61.310;2023-04-12T08:23:53;21.70;19.40
11454;DHT22;5783;55.174;61.310;2023-04-12T08:26:24;21.70;19.60
11454;DHT22;5783;55.174;61.310;2023-04-12T08:28:55;21.70;19.90
11454;DHT22;5783;55.174;61.310;2023-04-12T08:31:24;21.70;19.80
11454;DHT22;5783;55.174;61.310;2023-04-12T08:39:16;21.80;19.50
11454;DHT22;5783;55.174;61.310;2023-04-12T08:41:45;21.80;19.40
11454;DHT22;5783;55.174;61.310;2023-04-12T08:44:16;21.70;19.50
11454;DHT22;5783;55.174;61.310;2023-04-12T08:46:47;21.80;19.40
11454;DHT22;5783;55.174;61.310;2023-04-12T08:49:16;21.70;19.40
11454;DHT22;5783;55.174;61.310;2023-04-12T08:51:47;21.80;19.20
11454;DHT22;5783;55.174;61.310;2023-04-12T08:54:17;21.70;19.00
11454;DHT22;5783;55.174;61.310;2023-04-12T08:56:47;21.70;19.00
11454;DHT22;5783;55.174;61.310;2023-04-12T08:59:18;21.80;19.00
11454;DHT22;5783;55.174;61.310;2023-04-12T09:01:48;21.80;19.10
11454;DHT22;5783;55.174;61.310;2023-04-12T09:04:18;21.80;19.20
11454;DHT22;5783;55.174;61.310;2023-04-12T09:06:49;21.80;19.40
11454;DHT22;5783;55.174;61.310;2023-04-12T09:09:19;21.90;19.20
11454;DHT22;5783;55.174;61.310;2023-04-12T09:11:48;21.90;19.20
11454;DHT22;5783;55.174;61.310;2023-04-12T09:14:37;21.90;19.40
11454;DHT22;5783;55.174;61.310;2023-04-12T09:17:28;21.80;19.20
11454;DHT22;5783;55.174;61.310;2023-04-12T09:19:59;21.80;19.20
11454;DHT22;5783;55.174;61.310;2023-04-12T09:22:47;21.80;19.20
11454;DHT22;5783;55.174;61.310;2023-04-12T09:25:18;21.90;19.30
11454;DHT22;5783;55.174;61.310;2023-04-12T09:27:51;22.00;19.20
11454;DHT22;5783;55.174;61.310;2023-04-12T09:30:22;22.00;19.20
11454;DHT22;5783;55.174;61.310;2023-04-12T09:32:51;21.90;19.30
11454;DHT22;5783;55.174;61.310;2023-04-12T09:35:40;22.00;19.50
11454;DHT22;5783;55.174;61.310;2023-04-12T09:38:10;22.00;19.30
11454;DHT22;5783;55.174;61.310;2023-04-12T09:40:39;22.00;19.10
11454;DHT22;5783;55.174;61.310;2023-04-12T09:43:08;22.00;19.10
11454;DHT22;5783;55.174;61.310;2023-04-12T09:45:37;21.90;19.30
11454;DHT22;5783;55.174;61.310;2023-04-12T09:48:07;21.90;19.40
11454;DHT22;5783;55.174;61.310;2023-04-12T09:50:37;21.90;19.40
11454;DHT22;5783;55.174;61.310;2023-04-12T09:53:13;22.00;19.40
11454;DHT22;5783;55.174;61.310;2023-04-12T09:55:38;22.00;19.40
11454;DHT22;5783;55.174;61.310;2023-04-12T09:58:09;22.00;19.40
11454;DHT22;5783;55.174;61.310;2023-04-12T10:00:39;22.00;19.40
11454;DHT22;5783;55.174;61.310;2023-04-12T10:03:11;22.10;19.40
11454;DHT22;5783;55.174;61.310;2023-04-12T10:05:41;22.00;19.30
11454;DHT22;5783;55.174;61.310;2023-04-12T10:08:12;22.00;19.30
11454;DHT22;5783;55.174;61.310;2023-04-12T10:10:43;22.10;18.90
11454;DHT22;5783;55.174;61.310;2023-04-12T10:13:13;22.10;19.40
11454;DHT22;5783;55.174;61.310;2023-04-12T10:15:45;22.10;19.40
11454;DHT22;5783;55.174;61.310;2023-04-12T10:18:16;22.00;19.30
11454;DHT22;5783;55.174;61.310;2023-04-12T10:20:46;22.00;19.30
11454;DHT22;5783;55.174;61.310;2023-04-12T10:23:16;22.00;19.40
11454;DHT22;5783;55.174;61.310;2023-04-12T10:25:47;22.00;19.40
11454;DHT22;5783;55.174;61.310;2023-04-12T10:28:38;22.00;19.50
11454;DHT22;5783;55.174;61.310;2023-04-12T10:31:27;22.00;19.60
11454;DHT22;5783;55.174;61.310;2023-04-12T10:37:08;21.90;19.60
11454;DHT22;5783;55.174;61.310;2023-04-12T10:39:40;21.90;19.50
11454;DHT22;5783;55.174;61.310;2023-04-12T10:42:29;21.90;19.40
11454;DHT22;5783;55.174;61.310;2023-04-12T10:48:06;21.80;19.40
11454;DHT22;5783;55.174;61.310;2023-04-12T10:50:36;21.80;19.40
11454;DHT22;5783;55.174;61.310;2023-04-12T10:53:24;21.90;19.30
11454;DHT22;5783;55.174;61.310;2023-04-12T10:55:54;21.90;19.20
11454;DHT22;5783;55.174;61.310;2023-04-12T11:01:32;22.00;19.20
11454;DHT22;5783;55.174;61.310;2023-04-12T11:04:21;22.00;19.20
11454;DHT22;5783;55.174;61.310;2023-04-12T11:07:11;22.00;19.20
11454;DHT22;5783;55.174;61.310;2023-04-12T11:09:41;22.00;19.20
11454;DHT22;5783;55.174;61.310;2023-04-12T11:12:12;22.00;19.10
11454;DHT22;5783;55.174;61.310;2023-04-12T11:15:02;22.00;19.10
11454;DHT22;5783;55.174;61.310;2023-04-12T11:17:32;22.10;19.20
11454;DHT22;5783;55.174;61.310;2023-04-12T11:20:02;22.10;19.30
11454;DHT22;5783;55.174;61.310;2023-04-12T11:22:32;22.10;19.30
11454;DHT22;5783;55.174;61.310;2023-04-12T11:25:01;22.20;19.40
11454;DHT22;5783;55.174;61.310;2023-04-12T11:27:31;22.20;19.30
11454;DHT22;5783;55.174;61.310;2023-04-12T11:30:02;22.20;19.40
11454;DHT22;5783;55.174;61.310;2023-04-12T11:32:32;22.20;19.30
11454;DHT22;5783;55.174;61.310;2023-04-12T11:35:01;22.20;19.30
11454;DHT22;5783;55.174;61.310;2023-04-12T11:37:31;22.20;19.30
11454;DHT22;5783;55.174;61.310;2023-04-12T11:40:03;22.20;19.40
11454;DHT22;5783;55.174;61.310;2023-04-12T11:42:32;22.20;19.40
11454;DHT22;5783;55.174;61.310;2023-04-12T11:45:02;22.30;19.50
11454;DHT22;5783;55.174;61.310;2023-04-12T11:47:33;22.30;19.40
11454;DHT22;5783;55.174;61.310;2023-04-12T11:50:03;22.30;19.50
11454;DHT22;5783;55.174;61.310;2023-04-12T11:52:33;22.30;19.60
11454;DHT22;5783;55.174;61.310;2023-04-12T11:55:03;22.30;19.60
11454;DHT22;5783;55.174;61.310;2023-04-12T11:57:34;22.40;19.70
11454;DHT22;5783;55.174;61.310;2023-04-12T12:00:04;22.40;19.50
11454;DHT22;5783;55.174;61.310;2023-04-12T12:02:34;22.40;19.40
11454;DHT22;5783;55.174;61.310;2023-04-12T12:05:04;22.40;19.40
11454;DHT22;5783;55.174;61.310;2023-04-12T12:07:34;22.50;19.50
11454;DHT22;5783;55.174;61.310;2023-04-12T12:10:05;22.50;19.50
11454;DHT22;5783;55.174;61.310;2023-04-12T12:12:34;22.50;19.50
11454;DHT22;5783;55.174;61.310;2023-04-12T12:15:05;22.50;19.60
11454;DHT22;5783;55.174;61.310;2023-04-12T12:17:54;22.50;19.60
11454;DHT22;5783;55.174;61.310;2023-04-12T12:20:23;22.50;19.70
11454;DHT22;5783;55.174;61.310;2023-04-12T12:22:53;22.50;19.70
11454;DHT22;5783;55.174;61.310;2023-04-12T12:25:22;22.50;19.60
11454;DHT22;5783;55.174;61.310;2023-04-12T12:27:55;22.50;19.70
11454;DHT22;5783;55.174;61.310;2023-04-12T12:30:25;22.50;19.70
11454;DHT22;5783;55.174;61.310;2023-04-12T12:32:54;22.50;19.70
11454;DHT22;5783;55.174;61.310;2023-04-12T12:35:24;22.50;19.90
11454;DHT22;5783;55.174;61.310;2023-04-12T12:37:54;22.60;19.70
11454;DHT22;5783;55.174;61.310;2023-04-12T12:40:44;22.50;19.70
11454;DHT22;5783;55.174;61.310;2023-04-12T12:46:03;22.50;19.70
11454;DHT22;5783;55.174;61.310;2023-04-12T12:48:37;22.40;19.70
11454;DHT22;5783;55.174;61.310;2023-04-12T12:51:03;22.40;19.70
11454;DHT22;5783;55.174;61.310;2023-04-12T12:53:33;22.40;19.80
11454;DHT22;5783;55.174;61.310;2023-04-12T12:56:35;22.40;19.80
11454;DHT22;5783;55.174;61.310;2023-04-12T12:58:37;22.30;19.70
11454;DHT22;5783;55.174;61.310;2023-04-12T13:01:06;22.30;19.80
11454;DHT22;5783;55.174;61.310;2023-04-12T13:03:36;22.30;19.80
11454;DHT22;5783;55.174;61.310;2023-04-12T13:06:07;22.30;19.80
11454;DHT22;5783;55.174;61.310;2023-04-12T13:08:36;22.30;19.70
11454;DHT22;5783;55.174;61.310;2023-04-12T13:11:06;22.30;19.70
11454;DHT22;5783;55.174;61.310;2023-04-12T13:13:35;22.30;19.70
11454;DHT22;5783;55.174;61.310;2023-04-12T13:16:05;22.40;19.70
11454;DHT22;5783;55.174;61.310;2023-04-12T13:18:34;22.40;19.70
11454;DHT22;5783;55.174;61.310;2023-04-12T13:21:04;22.30;19.80
11454;DHT22;5783;55.174;61.310;2023-04-12T13:23:33;22.40;19.40
11454;DHT22;5783;55.174;61.310;2023-04-12T13:26:03;22.40;19.70
11454;DHT22;5783;55.174;61.310;2023-04-12T13:28:32;22.40;19.60
11454;DHT22;5783;55.174;61.310;2023-04-12T13:31:03;22.40;19.60
11454;DHT22;5783;55.174;61.310;2023-04-12T13:33:32;22.40;19.50
11454;DHT22;5783;55.174;61.310;2023-04-12T13:36:02;22.40;19.50
11454;DHT22;5783;55.174;61.310;2023-04-12T13:38:31;22.40;19.50
11454;DHT22;5783;55.174;61.310;2023-04-12T13:41:00;22.40;19.50
11454;DHT22;5783;55.174;61.310;2023-04-12T13:43:30;22.30;19.70
11454;DHT22;5783;55.174;61.310;2023-04-12T13:45:59;22.30;19.70
11454;DHT22;5783;55.174;61.310;2023-04-12T13:48:29;22.30;19.70
11454;DHT22;5783;55.174;61.310;2023-04-12T13:50:58;22.30;19.70
11454;DHT22;5783;55.174;61.310;2023-04-12T13:53:27;22.20;19.70
11454;DHT22;5783;55.174;61.310;2023-04-12T13:55:58;22.20;19.60
11454;DHT22;5783;55.174;61.310;2023-04-12T13:58:28;22.20;19.60
11454;DHT22;5783;55.174;61.310;2023-04-12T14:00:57;22.20;19.70
11454;DHT22;5783;55.174;61.310;2023-04-12T14:03:28;22.20;19.60
11454;DHT22;5783;55.174;61.310;2023-04-12T14:05:57;22.20;19.70
11454;DHT22;5783;55.174;61.310;2023-04-12T14:09:02;22.20;19.70
11454;DHT22;5783;55.174;61.310;2023-04-12T14:10:58;22.20;19.80
11454;DHT22;5783;55.174;61.310;2023-04-12T14:13:27;22.20;19.70
11454;DHT22;5783;55.174;61.310;2023-04-12T14:15:56;22.20;19.70
11454;DHT22;5783;55.174;61.310;2023-04-12T14:18:25;22.20;19.80
11454;DHT22;5783;55.174;61.310;2023-04-12T14:20:54;22.20;19.80
11454;DHT22;5783;55.174;61.310;2023-04-12T14:23:24;22.20;19.80
11454;DHT22;5783;55.174;61.310;2023-04-12T14:25:54;22.20;19.90
11454;DHT22;5783;55.174;61.310;2023-04-12T14:28:23;22.20;19.90
11454;DHT22;5783;55.174;61.310;2023-04-12T14:30:53;22.20;20.00
11454;DHT22;5783;55.174;61.310;2023-04-12T14:33:24;22.20;20.00
11454;DHT22;5783;55.174;61.310;2023-04-12T14:35:54;22.10;19.90
11454;DHT22;5783;55.174;61.310;2023-04-12T14:38:23;22.20;19.90
11454;DHT22;5783;55.174;61.310;2023-04-12T14:40:52;22.10;20.00
11454;DHT22;5783;55.174;61.310;2023-04-12T14:43:22;22.10;20.10
11454;DHT22;5783;55.174;61.310;2023-04-12T14:45:51;22.00;20.10
11454;DHT22;5783;55.174;61.310;2023-04-12T14:48:20;22.10;20.20
11454;DHT22;5783;55.174;61.310;2023-04-12T14:50:49;22.00;20.20
11454;DHT22;5783;55.174;61.310;2023-04-12T14:53:20;22.00;20.20
11454;DHT22;5783;55.174;61.310;2023-04-12T14:55:50;22.00;20.30
11454;DHT22;5783;55.174;61.310;2023-04-12T14:58:19;22.00;20.30
11454;DHT22;5783;55.174;61.310;2023-04-12T15:00:48;22.00;20.30
11454;DHT22;5783;55.174;61.310;2023-04-12T15:03:18;22.00;20.50
11454;DHT22;5783;55.174;61.310;2023-04-12T15:05:47;22.00;20.90
11454;DHT22;5783;55.174;61.310;2023-04-12T15:08:16;21.90;21.90
11454;DHT22;5783;55.174;61.310;2023-04-12T15:10:45;21.90;22.20
11454;DHT22;5783;55.174;61.310;2023-04-12T15:13:34;21.90;22.60
11454;DHT22;5783;55.174;61.310;2023-04-12T15:16:07;21.80;22.80
11454;DHT22;5783;55.174;61.310;2023-04-12T15:18:38;21.80;22.70
11454;DHT22;5783;55.174;61.310;2023-04-12T15:21:27;21.70;22.80
11454;DHT22;5783;55.174;61.310;2023-04-12T15:23:56;21.70;23.00
11454;DHT22;5783;55.174;61.310;2023-04-12T15:26:26;21.70;23.20
11454;DHT22;5783;55.174;61.310;2023-04-12T15:28:55;21.70;23.20
11454;DHT22;5783;55.174;61.310;2023-04-12T15:31:24;21.70;23.30
11454;DHT22;5783;55.174;61.310;2023-04-12T15:33:55;21.70;23.30
11454;DHT22;5783;55.174;61.310;2023-04-12T15:36:26;21.70;23.40
11454;DHT22;5783;55.174;61.310;2023-04-12T15:38:57;21.70;23.50
11454;DHT22;5783;55.174;61.310;2023-04-12T15:41:27;21.70;23.50
11454;DHT22;5783;55.174;61.310;2023-04-12T15:43:57;21.70;23.50
11454;DHT22;5783;55.174;61.310;2023-04-12T15:46:26;21.70;23.60
11454;DHT22;5783;55.174;61.310;2023-04-12T15:48:56;21.70;23.60
11454;DHT22;5783;55.174;61.310;2023-04-12T15:51:27;21.70;23.70
11454;DHT22;5783;55.174;61.310;2023-04-12T15:53:58;21.70;23.80
11454;DHT22;5783;55.174;61.310;2023-04-12T15:56:28;21.70;23.70
11454;DHT22;5783;55.174;61.310;2023-04-12T15:58:58;21.70;23.90
11454;DHT22;5783;55.174;61.310;2023-04-12T16:01:27;21.70;23.80
11454;DHT22;5783;55.174;61.310;2023-04-12T16:03:56;21.70;23.90
11454;DHT22;5783;55.174;61.310;2023-04-12T16:06:25;21.70;23.90
11454;DHT22;5783;55.174;61.310;2023-04-12T16:08:56;21.70;24.00
11454;DHT22;5783;55.174;61.310;2023-04-12T16:11:27;21.70;24.10
11454;DHT22;5783;55.174;61.310;2023-04-12T16:13:58;21.70;24.00
11454;DHT22;5783;55.174;61.310;2023-04-12T16:16:27;21.70;24.00
11454;DHT22;5783;55.174;61.310;2023-04-12T16:19:16;21.70;24.00
11454;DHT22;5783;55.174;61.310;2023-04-12T16:21:45;21.70;23.90
11454;DHT22;5783;55.174;61.310;2023-04-12T16:24:14;21.70;24.10
11454;DHT22;5783;55.174;61.310;2023-04-12T16:26:44;21.70;24.10
11454;DHT22;5783;55.174;61.310;2023-04-12T16:29:13;21.70;24.20
11454;DHT22;5783;55.174;61.310;2023-04-12T16:31:42;21.70;24.30
11454;DHT22;5783;55.174;61.310;2023-04-12T16:34:13;21.70;24.30